sensor_id;sensor_type;location;lat;lon;timestamp;P1;durP1;ratioP1;P2;durP2;ratioP2
46006;SDS011;31738;50.188;8.524;2022-07-24T00:02:22;5.95;;;3.45;;
46006;SDS011;31738;50.188;8.524;2022-07-24T00:04:48;5.63;;;3.85;;
46006;SDS011;31738;50.188;8.524;2022-07-24T00:07:13;6.47;;;3.42;;
46006;SDS011;31738;50.188;8.524;2022-07-24T00:09:39;5.43;;;3.60;;
46006;SDS011;31738;50.188;8.524;2022-07-24T00:12:04;5.13;;;3.22;;
46006;SDS011;31738;50.188;8.524;2022-07-24T00:14:30;4.97;;;3.60;;
46006;SDS011;31738;50.188;8.524;2022-07-24T00:16:56;4.20;;;3.40;;
46006;SDS011;31738;50.188;8.524;2022-07-24T00:19:21;4.57;;;3.38;;
46006;SDS011;31738;50.188;8.524;2022-07-24T00:21:47;5.03;;;3.15;;
46006;SDS011;31738;50.188;8.524;2022-07-24T00:24:12;6.00;;;3.90;;
46006;SDS011;31738;50.188;8.524;2022-07-24T00:26:38;6.85;;;3.38;;
46006;SDS011;31738;50.188;8.524;2022-07-24T00:29:03;5.32;;;3.70;;
46006;SDS011;31738;50.188;8.524;2022-07-24T00:31:29;4.13;;;3.60;;
46006;SDS011;31738;50.188;8.524;2022-07-24T00:33:55;6.45;;;3.67;;
46006;SDS011;31738;50.188;8.524;2022-07-24T00:36:20;6.65;;;3.85;;
46006;SDS011;31738;50.188;8.524;2022-07-24T00:38:46;4.75;;;3.38;;
46006;SDS011;31738;50.188;8.524;2022-07-24T00:41:11;4.63;;;3.40;;
46006;SDS011;31738;50.188;8.524;2022-07-24T00:46:26;4.57;;;3.58;;
46006;SDS011;31738;50.188;8.524;2022-07-24T00:48:52;6.10;;;3.40;;
46006;SDS011;31738;50.188;8.524;2022-07-24T00:51:17;4.15;;;3.28;;
46006;SDS011;31738;50.188;8.524;2022-07-24T00:53:43;4.90;;;3.42;;
46006;SDS011;31738;50.188;8.524;2022-07-24T00:56:08;6.38;;;3.53;;
46006;SDS011;31738;50.188;8.524;2022-07-24T00:58:34;4.63;;;3.80;;
46006;SDS011;31738;50.188;8.524;2022-07-24T01:00:59;4.20;;;3.22;;
46006;SDS011;31738;50.188;8.524;2022-07-24T01:03:25;3.83;;;3.30;;
46006;SDS011;31738;50.188;8.524;2022-07-24T01:05:50;9.63;;;3.65;;
46006;SDS011;31738;50.188;8.524;2022-07-24T01:08:16;4.32;;;3.88;;
46006;SDS011;31738;50.188;8.524;2022-07-24T01:10:41;5.50;;;4.20;;
46006;SDS011;31738;50.188;8.524;2022-07-24T01:13:07;4.10;;;3.28;;
46006;SDS011;31738;50.188;8.524;2022-07-24T01:15:33;6.30;;;3.88;;
46006;SDS011;31738;50.188;8.524;2022-07-24T01:17:59;4.75;;;3.85;;
46006;SDS011;31738;50.188;8.524;2022-07-24T01:20:24;5.88;;;3.90;;
46006;SDS011;31738;50.188;8.524;2022-07-24T01:22:49;6.13;;;4.10;;
46006;SDS011;31738;50.188;8.524;2022-07-24T01:25:15;6.45;;;3.90;;
46006;SDS011;31738;50.188;8.524;2022-07-24T01:27:40;5.60;;;3.33;;
46006;SDS011;31738;50.188;8.524;2022-07-24T01:30:06;4.75;;;3.70;;
46006;SDS011;31738;50.188;8.524;2022-07-24T01:32:32;5.28;;;3.47;;
46006;SDS011;31738;50.188;8.524;2022-07-24T01:34:58;4.97;;;3.33;;
46006;SDS011;31738;50.188;8.524;2022-07-24T01:37:23;5.95;;;3.53;;
46006;SDS011;31738;50.188;8.524;2022-07-24T01:39:49;4.47;;;3.40;;
46006;SDS011;31738;50.188;8.524;2022-07-24T01:42:14;7.10;;;3.50;;
46006;SDS011;31738;50.188;8.524;2022-07-24T01:44:40;5.45;;;3.97;;
46006;SDS011;31738;50.188;8.524;2022-07-24T01:47:05;7.10;;;3.63;;
46006;SDS011;31738;50.188;8.524;2022-07-24T01:49:31;5.07;;;3.58;;
46006;SDS011;31738;50.188;8.524;2022-07-24T01:51:56;5.78;;;3.75;;
46006;SDS011;31738;50.188;8.524;2022-07-24T01:54:22;6.15;;;3.50;;
46006;SDS011;31738;50.188;8.524;2022-07-24T01:56:47;4.43;;;3.55;;
46006;SDS011;31738;50.188;8.524;2022-07-24T01:59:13;5.20;;;3.75;;
46006;SDS011;31738;50.188;8.524;2022-07-24T02:01:38;5.55;;;3.88;;
46006;SDS011;31738;50.188;8.524;2022-07-24T02:04:04;5.45;;;3.45;;
46006;SDS011;31738;50.188;8.524;2022-07-24T02:06:29;4.75;;;3.60;;
46006;SDS011;31738;50.188;8.524;2022-07-24T02:08:55;4.80;;;3.67;;
46006;SDS011;31738;50.188;8.524;2022-07-24T02:11:20;5.32;;;3.78;;
46006;SDS011;31738;50.188;8.524;2022-07-24T02:13:46;5.00;;;4.05;;
46006;SDS011;31738;50.188;8.524;2022-07-24T02:16:11;4.68;;;3.65;;
46006;SDS011;31738;50.188;8.524;2022-07-24T02:18:37;3.80;;;3.13;;
46006;SDS011;31738;50.188;8.524;2022-07-24T02:21:02;6.15;;;3.28;;
46006;SDS011;31738;50.188;8.524;2022-07-24T02:23:28;6.13;;;3.58;;
46006;SDS011;31738;50.188;8.524;2022-07-24T02:25:53;6.25;;;3.33;;
46006;SDS011;31738;50.188;8.524;2022-07-24T02:28:19;5.55;;;3.67;;
46006;SDS011;31738;50.188;8.524;2022-07-24T02:30:44;6.07;;;3.78;;
46006;SDS011;31738;50.188;8.524;2022-07-24T02:33:10;4.38;;;3.53;;
46006;SDS011;31738;50.188;8.524;2022-07-24T02:35:36;4.70;;;3.40;;
46006;SDS011;31738;50.188;8.524;2022-07-24T02:38:02;4.93;;;4.03;;
46006;SDS011;31738;50.188;8.524;2022-07-24T02:40:29;5.68;;;3.75;;
46006;SDS011;31738;50.188;8.524;2022-07-24T02:42:55;6.30;;;3.88;;
46006;SDS011;31738;50.188;8.524;2022-07-24T02:45:20;5.45;;;3.60;;
46006;SDS011;31738;50.188;8.524;2022-07-24T02:47:47;7.20;;;3.47;;
46006;SDS011;31738;50.188;8.524;2022-07-24T02:50:17;4.78;;;3.75;;
46006;SDS011;31738;50.188;8.524;2022-07-24T02:52:43;4.75;;;3.50;;
46006;SDS011;31738;50.188;8.524;2022-07-24T02:55:09;6.47;;;3.60;;
46006;SDS011;31738;50.188;8.524;2022-07-24T02:57:34;4.82;;;3.60;;
46006;SDS011;31738;50.188;8.524;2022-07-24T03:00:00;5.00;;;3.63;;
46006;SDS011;31738;50.188;8.524;2022-07-24T03:02:26;6.95;;;3.72;;
46006;SDS011;31738;50.188;8.524;2022-07-24T03:04:52;4.95;;;3.75;;
46006;SDS011;31738;50.188;8.524;2022-07-24T03:07:17;5.55;;;3.35;;
46006;SDS011;31738;50.188;8.524;2022-07-24T03:09:43;5.07;;;3.70;;
46006;SDS011;31738;50.188;8.524;2022-07-24T03:12:08;5.97;;;3.78;;
46006;SDS011;31738;50.188;8.524;2022-07-24T03:14:33;5.03;;;3.80;;
46006;SDS011;31738;50.188;8.524;2022-07-24T03:16:59;4.80;;;3.25;;
46006;SDS011;31738;50.188;8.524;2022-07-24T03:19:24;4.70;;;3.53;;
46006;SDS011;31738;50.188;8.524;2022-07-24T03:21:50;6.40;;;3.95;;
46006;SDS011;31738;50.188;8.524;2022-07-24T03:24:16;5.22;;;3.40;;
46006;SDS011;31738;50.188;8.524;2022-07-24T03:26:41;4.55;;;3.33;;
46006;SDS011;31738;50.188;8.524;2022-07-24T03:29:07;6.22;;;3.20;;
46006;SDS011;31738;50.188;8.524;2022-07-24T03:31:32;5.97;;;3.38;;
46006;SDS011;31738;50.188;8.524;2022-07-24T03:33:58;9.40;;;3.97;;
46006;SDS011;31738;50.188;8.524;2022-07-24T03:36:23;4.35;;;3.60;;
46006;SDS011;31738;50.188;8.524;2022-07-24T03:38:49;4.82;;;3.90;;
46006;SDS011;31738;50.188;8.524;2022-07-24T03:41:14;5.07;;;3.33;;
46006;SDS011;31738;50.188;8.524;2022-07-24T03:43:40;6.00;;;3.55;;
46006;SDS011;31738;50.188;8.524;2022-07-24T03:46:05;5.40;;;3.20;;
46006;SDS011;31738;50.188;8.524;2022-07-24T03:48:30;4.07;;;3.65;;
46006;SDS011;31738;50.188;8.524;2022-07-24T03:50:56;5.65;;;3.45;;
46006;SDS011;31738;50.188;8.524;2022-07-24T03:53:22;5.32;;;3.92;;
46006;SDS011;31738;50.188;8.524;2022-07-24T03:55:47;4.82;;;3.40;;
46006;SDS011;31738;50.188;8.524;2022-07-24T03:58:12;4.07;;;3.67;;
46006;SDS011;31738;50.188;8.524;2022-07-24T04:00:38;5.13;;;3.50;;
46006;SDS011;31738;50.188;8.524;2022-07-24T04:03:04;5.18;;;3.50;;
46006;SDS011;31738;50.188;8.524;2022-07-24T04:05:29;7.10;;;3.65;;
46006;SDS011;31738;50.188;8.524;2022-07-24T04:07:55;6.28;;;3.30;;
46006;SDS011;31738;50.188;8.524;2022-07-24T04:10:21;4.80;;;3.53;;
46006;SDS011;31738;50.188;8.524;2022-07-24T04:12:46;5.55;;;4.18;;
46006;SDS011;31738;50.188;8.524;2022-07-24T04:15:12;4.63;;;3.72;;
46006;SDS011;31738;50.188;8.524;2022-07-24T04:17:39;5.45;;;4.20;;
46006;SDS011;31738;50.188;8.524;2022-07-24T04:20:05;6.47;;;5.07;;
46006;SDS011;31738;50.188;8.524;2022-07-24T04:22:31;5.55;;;3.53;;
46006;SDS011;31738;50.188;8.524;2022-07-24T04:24:57;10.02;;;3.88;;
46006;SDS011;31738;50.188;8.524;2022-07-24T04:27:22;7.40;;;4.00;;
46006;SDS011;31738;50.188;8.524;2022-07-24T04:29:47;7.35;;;4.30;;
46006;SDS011;31738;50.188;8.524;2022-07-24T04:32:13;4.10;;;3.35;;
46006;SDS011;31738;50.188;8.524;2022-07-24T04:34:38;4.40;;;4.00;;
46006;SDS011;31738;50.188;8.524;2022-07-24T04:37:04;4.00;;;3.45;;
46006;SDS011;31738;50.188;8.524;2022-07-24T04:39:29;8.32;;;3.38;;
46006;SDS011;31738;50.188;8.524;2022-07-24T04:41:55;6.88;;;3.63;;
46006;SDS011;31738;50.188;8.524;2022-07-24T04:44:20;6.32;;;3.75;;
46006;SDS011;31738;50.188;8.524;2022-07-24T04:46:45;6.50;;;3.72;;
46006;SDS011;31738;50.188;8.524;2022-07-24T04:49:11;4.68;;;3.70;;
46006;SDS011;31738;50.188;8.524;2022-07-24T04:51:36;5.68;;;4.00;;
46006;SDS011;31738;50.188;8.524;2022-07-24T04:54:02;4.40;;;3.67;;
46006;SDS011;31738;50.188;8.524;2022-07-24T04:56:27;4.47;;;3.53;;
46006;SDS011;31738;50.188;8.524;2022-07-24T04:58:56;4.15;;;3.72;;
46006;SDS011;31738;50.188;8.524;2022-07-24T05:01:22;3.97;;;3.30;;
46006;SDS011;31738;50.188;8.524;2022-07-24T05:03:47;7.95;;;4.05;;
46006;SDS011;31738;50.188;8.524;2022-07-24T05:06:13;4.45;;;3.60;;
46006;SDS011;31738;50.188;8.524;2022-07-24T05:08:38;6.57;;;3.83;;
46006;SDS011;31738;50.188;8.524;2022-07-24T05:11:03;4.65;;;3.70;;
46006;SDS011;31738;50.188;8.524;2022-07-24T05:13:29;4.13;;;3.72;;
46006;SDS011;31738;50.188;8.524;2022-07-24T05:15:54;5.15;;;3.58;;
46006;SDS011;31738;50.188;8.524;2022-07-24T05:18:20;4.80;;;3.80;;
46006;SDS011;31738;50.188;8.524;2022-07-24T05:20:46;4.90;;;3.78;;
46006;SDS011;31738;50.188;8.524;2022-07-24T05:23:11;6.38;;;3.63;;
46006;SDS011;31738;50.188;8.524;2022-07-24T05:25:37;5.28;;;3.58;;
46006;SDS011;31738;50.188;8.524;2022-07-24T05:28:02;4.68;;;4.13;;
46006;SDS011;31738;50.188;8.524;2022-07-24T05:30:28;5.30;;;3.70;;
46006;SDS011;31738;50.188;8.524;2022-07-24T05:32:53;4.30;;;3.53;;
46006;SDS011;31738;50.188;8.524;2022-07-24T05:35:19;5.75;;;3.35;;
46006;SDS011;31738;50.188;8.524;2022-07-24T05:37:45;4.78;;;3.85;;
46006;SDS011;31738;50.188;8.524;2022-07-24T05:40:10;6.00;;;3.72;;
46006;SDS011;31738;50.188;8.524;2022-07-24T05:42:36;4.88;;;3.88;;
46006;SDS011;31738;50.188;8.524;2022-07-24T05:45:02;6.32;;;3.97;;
46006;SDS011;31738;50.188;8.524;2022-07-24T05:47:28;5.32;;;4.00;;
46006;SDS011;31738;50.188;8.524;2022-07-24T05:49:54;4.45;;;3.85;;
46006;SDS011;31738;50.188;8.524;2022-07-24T05:52:19;5.07;;;3.38;;
46006;SDS011;31738;50.188;8.524;2022-07-24T05:54:44;5.00;;;3.30;;
46006;SDS011;31738;50.188;8.524;2022-07-24T05:57:10;5.43;;;3.47;;
46006;SDS011;31738;50.188;8.524;2022-07-24T05:59:35;5.72;;;3.65;;
46006;SDS011;31738;50.188;8.524;2022-07-24T06:02:01;5.05;;;3.72;;
46006;SDS011;31738;50.188;8.524;2022-07-24T06:07:24;4.00;;;3.05;;
46006;SDS011;31738;50.188;8.524;2022-07-24T06:09:50;3.92;;;3.08;;
46006;SDS011;31738;50.188;8.524;2022-07-24T06:12:17;3.15;;;2.85;;
46006;SDS011;31738;50.188;8.524;2022-07-24T06:14:42;5.60;;;3.25;;
46006;SDS011;31738;50.188;8.524;2022-07-24T06:17:08;5.00;;;3.60;;
46006;SDS011;31738;50.188;8.524;2022-07-24T06:19:34;4.70;;;3.60;;
46006;SDS011;31738;50.188;8.524;2022-07-24T06:21:59;5.28;;;3.33;;
46006;SDS011;31738;50.188;8.524;2022-07-24T06:24:25;4.30;;;3.40;;
46006;SDS011;31738;50.188;8.524;2022-07-24T06:26:50;7.28;;;3.42;;
46006;SDS011;31738;50.188;8.524;2022-07-24T06:29:18;5.18;;;3.38;;
46006;SDS011;31738;50.188;8.524;2022-07-24T06:31:43;6.35;;;3.53;;
46006;SDS011;31738;50.188;8.524;2022-07-24T06:34:09;5.60;;;3.60;;
46006;SDS011;31738;50.188;8.524;2022-07-24T06:36:34;5.07;;;3.65;;
46006;SDS011;31738;50.188;8.524;2022-07-24T06:39:00;5.20;;;3.20;;
46006;SDS011;31738;50.188;8.524;2022-07-24T06:41:25;5.80;;;3.40;;
46006;SDS011;31738;50.188;8.524;2022-07-24T06:43:51;4.68;;;3.30;;
46006;SDS011;31738;50.188;8.524;2022-07-24T06:46:17;3.70;;;3.30;;
46006;SDS011;31738;50.188;8.524;2022-07-24T06:48:42;5.05;;;3.28;;
46006;SDS011;31738;50.188;8.524;2022-07-24T06:51:10;5.20;;;3.28;;
46006;SDS011;31738;50.188;8.524;2022-07-24T06:53:36;4.63;;;3.33;;
46006;SDS011;31738;50.188;8.524;2022-07-24T06:56:02;4.13;;;3.15;;
46006;SDS011;31738;50.188;8.524;2022-07-24T06:58:28;5.85;;;3.25;;
46006;SDS011;31738;50.188;8.524;2022-07-24T07:00:56;4.28;;;3.30;;
46006;SDS011;31738;50.188;8.524;2022-07-24T07:03:21;4.43;;;3.10;;
46006;SDS011;31738;50.188;8.524;2022-07-24T07:05:47;3.70;;;3.17;;
46006;SDS011;31738;50.188;8.524;2022-07-24T07:08:13;4.57;;;3.45;;
46006;SDS011;31738;50.188;8.524;2022-07-24T07:10:38;6.53;;;3.53;;
46006;SDS011;31738;50.188;8.524;2022-07-24T07:13:04;7.68;;;3.75;;
46006;SDS011;31738;50.188;8.524;2022-07-24T07:15:32;6.63;;;3.63;;
46006;SDS011;31738;50.188;8.524;2022-07-24T07:17:57;7.32;;;4.25;;
46006;SDS011;31738;50.188;8.524;2022-07-24T07:20:23;4.15;;;3.60;;
46006;SDS011;31738;50.188;8.524;2022-07-24T07:22:48;7.95;;;3.80;;
46006;SDS011;31738;50.188;8.524;2022-07-24T07:25:14;5.72;;;3.78;;
46006;SDS011;31738;50.188;8.524;2022-07-24T07:27:41;4.57;;;3.78;;
46006;SDS011;31738;50.188;8.524;2022-07-24T07:30:07;6.38;;;3.50;;
46006;SDS011;31738;50.188;8.524;2022-07-24T07:32:33;4.97;;;3.72;;
46006;SDS011;31738;50.188;8.524;2022-07-24T07:35:01;4.88;;;3.72;;
46006;SDS011;31738;50.188;8.524;2022-07-24T07:37:27;7.80;;;3.78;;
46006;SDS011;31738;50.188;8.524;2022-07-24T07:39:56;4.40;;;3.80;;
46006;SDS011;31738;50.188;8.524;2022-07-24T07:42:23;7.05;;;3.88;;
46006;SDS011;31738;50.188;8.524;2022-07-24T07:44:49;6.00;;;3.90;;
46006;SDS011;31738;50.188;8.524;2022-07-24T07:47:14;5.07;;;3.60;;
46006;SDS011;31738;50.188;8.524;2022-07-24T07:49:40;4.82;;;3.42;;
46006;SDS011;31738;50.188;8.524;2022-07-24T07:52:06;6.20;;;3.83;;
46006;SDS011;31738;50.188;8.524;2022-07-24T07:54:31;7.13;;;4.00;;
46006;SDS011;31738;50.188;8.524;2022-07-24T07:57:00;6.05;;;3.50;;
46006;SDS011;31738;50.188;8.524;2022-07-24T07:59:25;4.43;;;3.67;;
46006;SDS011;31738;50.188;8.524;2022-07-24T08:01:51;4.50;;;3.75;;
46006;SDS011;31738;50.188;8.524;2022-07-24T08:04:16;9.68;;;3.70;;
46006;SDS011;31738;50.188;8.524;2022-07-24T08:06:42;4.82;;;4.00;;
46006;SDS011;31738;50.188;8.524;2022-07-24T08:09:07;6.45;;;3.45;;
46006;SDS011;31738;50.188;8.524;2022-07-24T08:11:33;4.68;;;3.50;;
46006;SDS011;31738;50.188;8.524;2022-07-24T08:13:59;5.00;;;3.75;;
46006;SDS011;31738;50.188;8.524;2022-07-24T08:16:25;4.22;;;3.65;;
46006;SDS011;31738;50.188;8.524;2022-07-24T08:18:50;6.00;;;4.05;;
46006;SDS011;31738;50.188;8.524;2022-07-24T08:21:16;5.05;;;3.55;;
46006;SDS011;31738;50.188;8.524;2022-07-24T08:23:49;4.78;;;4.00;;
46006;SDS011;31738;50.188;8.524;2022-07-24T08:26:17;4.75;;;3.83;;
46006;SDS011;31738;50.188;8.524;2022-07-24T08:28:43;7.18;;;3.83;;
46006;SDS011;31738;50.188;8.524;2022-07-24T08:31:08;5.38;;;4.20;;
46006;SDS011;31738;50.188;8.524;2022-07-24T08:33:37;5.78;;;4.13;;
46006;SDS011;31738;50.188;8.524;2022-07-24T08:36:03;6.30;;;4.07;;
46006;SDS011;31738;50.188;8.524;2022-07-24T08:38:29;4.57;;;4.15;;
46006;SDS011;31738;50.188;8.524;2022-07-24T08:41:01;5.13;;;4.43;;
46006;SDS011;31738;50.188;8.524;2022-07-24T08:43:27;4.95;;;3.75;;
46006;SDS011;31738;50.188;8.524;2022-07-24T08:45:55;8.27;;;4.47;;
46006;SDS011;31738;50.188;8.524;2022-07-24T08:48:22;5.53;;;4.05;;
46006;SDS011;31738;50.188;8.524;2022-07-24T08:50:49;5.20;;;4.47;;
46006;SDS011;31738;50.188;8.524;2022-07-24T08:53:15;5.88;;;3.70;;
46006;SDS011;31738;50.188;8.524;2022-07-24T08:55:44;5.25;;;4.25;;
46006;SDS011;31738;50.188;8.524;2022-07-24T08:58:09;10.82;;;4.60;;
46006;SDS011;31738;50.188;8.524;2022-07-24T09:00:35;5.75;;;4.15;;
46006;SDS011;31738;50.188;8.524;2022-07-24T09:03:00;7.53;;;4.65;;
46006;SDS011;31738;50.188;8.524;2022-07-24T09:05:26;6.00;;;4.57;;
46006;SDS011;31738;50.188;8.524;2022-07-24T09:08:08;6.75;;;4.50;;
46006;SDS011;31738;50.188;8.524;2022-07-24T09:10:39;4.88;;;4.38;;
46006;SDS011;31738;50.188;8.524;2022-07-24T09:13:15;6.57;;;4.18;;
46006;SDS011;31738;50.188;8.524;2022-07-24T09:15:46;5.40;;;4.53;;
46006;SDS011;31738;50.188;8.524;2022-07-24T09:18:33;4.57;;;4.03;;
46006;SDS011;31738;50.188;8.524;2022-07-24T09:21:20;5.25;;;4.30;;
46006;SDS011;31738;50.188;8.524;2022-07-24T09:23:45;6.20;;;4.07;;
46006;SDS011;31738;50.188;8.524;2022-07-24T09:26:11;6.38;;;4.22;;
46006;SDS011;31738;50.188;8.524;2022-07-24T09:28:49;5.88;;;4.30;;
46006;SDS011;31738;50.188;8.524;2022-07-24T09:31:20;5.60;;;4.65;;
46006;SDS011;31738;50.188;8.524;2022-07-24T09:33:48;5.50;;;4.47;;
46006;SDS011;31738;50.188;8.524;2022-07-24T09:36:15;4.70;;;4.05;;
46006;SDS011;31738;50.188;8.524;2022-07-24T09:38:48;5.88;;;4.22;;
46006;SDS011;31738;50.188;8.524;2022-07-24T09:41:22;4.50;;;4.00;;
46006;SDS011;31738;50.188;8.524;2022-07-24T09:43:56;4.43;;;4.03;;
46006;SDS011;31738;50.188;8.524;2022-07-24T09:46:23;7.38;;;4.15;;
46006;SDS011;31738;50.188;8.524;2022-07-24T09:48:52;5.38;;;4.38;;
46006;SDS011;31738;50.188;8.524;2022-07-24T09:51:27;5.47;;;4.22;;
46006;SDS011;31738;50.188;8.524;2022-07-24T09:54:00;4.68;;;4.18;;
46006;SDS011;31738;50.188;8.524;2022-07-24T09:56:29;5.03;;;4.35;;
46006;SDS011;31738;50.188;8.524;2022-07-24T09:59:05;4.68;;;4.22;;
46006;SDS011;31738;50.188;8.524;2022-07-24T10:01:34;5.97;;;4.85;;
46006;SDS011;31738;50.188;8.524;2022-07-24T10:04:00;5.50;;;4.72;;
46006;SDS011;31738;50.188;8.524;2022-07-24T10:06:34;6.75;;;5.10;;
46006;SDS011;31738;50.188;8.524;2022-07-24T10:09:01;5.47;;;4.60;;
46006;SDS011;31738;50.188;8.524;2022-07-24T10:11:51;8.25;;;4.32;;
46006;SDS011;31738;50.188;8.524;2022-07-24T10:14:19;6.22;;;3.90;;
46006;SDS011;31738;50.188;8.524;2022-07-24T10:17:03;6.60;;;4.85;;
46006;SDS011;31738;50.188;8.524;2022-07-24T10:19:41;5.00;;;4.45;;
46006;SDS011;31738;50.188;8.524;2022-07-24T10:22:12;7.70;;;5.05;;
46006;SDS011;31738;50.188;8.524;2022-07-24T10:24:48;6.47;;;4.50;;
46006;SDS011;31738;50.188;8.524;2022-07-24T10:27:26;5.68;;;4.72;;
46006;SDS011;31738;50.188;8.524;2022-07-24T10:29:58;6.80;;;4.55;;
46006;SDS011;31738;50.188;8.524;2022-07-24T10:32:35;7.45;;;4.50;;
46006;SDS011;31738;50.188;8.524;2022-07-24T10:35:13;6.10;;;4.82;;
46006;SDS011;31738;50.188;8.524;2022-07-24T10:43:19;5.32;;;4.55;;
46006;SDS011;31738;50.188;8.524;2022-07-24T10:45:48;6.22;;;4.70;;
46006;SDS011;31738;50.188;8.524;2022-07-24T10:48:34;8.00;;;4.80;;
46006;SDS011;31738;50.188;8.524;2022-07-24T10:51:02;6.03;;;5.03;;
46006;SDS011;31738;50.188;8.524;2022-07-24T10:59:06;5.65;;;5.05;;
46006;SDS011;31738;50.188;8.524;2022-07-24T11:04:03;6.25;;;5.30;;
46006;SDS011;31738;50.188;8.524;2022-07-24T11:06:47;6.10;;;5.35;;
46006;SDS011;31738;50.188;8.524;2022-07-24T11:09:58;8.25;;;5.38;;
46006;SDS011;31738;50.188;8.524;2022-07-24T11:12:27;5.70;;;5.18;;
46006;SDS011;31738;50.188;8.524;2022-07-24T11:15:03;7.40;;;5.43;;
46006;SDS011;31738;50.188;8.524;2022-07-24T11:17:49;8.70;;;5.70;;
46006;SDS011;31738;50.188;8.524;2022-07-24T11:20:21;6.22;;;5.25;;
46006;SDS011;31738;50.188;8.524;2022-07-24T11:22:52;7.15;;;5.40;;
46006;SDS011;31738;50.188;8.524;2022-07-24T11:25:27;8.88;;;5.30;;
46006;SDS011;31738;50.188;8.524;2022-07-24T11:28:00;7.97;;;5.60;;
46006;SDS011;31738;50.188;8.524;2022-07-24T11:30:41;8.20;;;6.07;;
46006;SDS011;31738;50.188;8.524;2022-07-24T11:33:12;6.38;;;5.07;;
46006;SDS011;31738;50.188;8.524;2022-07-24T11:35:45;6.60;;;5.90;;
46006;SDS011;31738;50.188;8.524;2022-07-24T11:38:13;7.07;;;5.70;;
46006;SDS011;31738;50.188;8.524;2022-07-24T11:40:43;5.80;;;4.97;;
46006;SDS011;31738;50.188;8.524;2022-07-24T11:43:08;6.22;;;5.55;;
46006;SDS011;31738;50.188;8.524;2022-07-24T11:45:37;7.30;;;5.65;;
46006;SDS011;31738;50.188;8.524;2022-07-24T11:48:04;5.65;;;5.05;;
46006;SDS011;31738;50.188;8.524;2022-07-24T11:50:29;6.13;;;4.50;;
46006;SDS011;31738;50.188;8.524;2022-07-24T11:52:59;5.55;;;5.05;;
46006;SDS011;31738;50.188;8.524;2022-07-24T11:55:34;5.85;;;5.03;;
46006;SDS011;31738;50.188;8.524;2022-07-24T11:58:00;5.88;;;4.90;;
46006;SDS011;31738;50.188;8.524;2022-07-24T12:00:27;5.57;;;4.95;;
46006;SDS011;31738;50.188;8.524;2022-07-24T12:02:56;7.60;;;5.32;;
46006;SDS011;31738;50.188;8.524;2022-07-24T12:05:35;7.03;;;5.28;;
46006;SDS011;31738;50.188;8.524;2022-07-24T12:08:03;6.32;;;5.72;;
46006;SDS011;31738;50.188;8.524;2022-07-24T12:10:42;5.90;;;5.30;;
46006;SDS011;31738;50.188;8.524;2022-07-24T12:13:07;6.60;;;5.15;;
46006;SDS011;31738;50.188;8.524;2022-07-24T12:15:34;6.68;;;5.28;;
46006;SDS011;31738;50.188;8.524;2022-07-24T12:18:04;6.13;;;5.10;;
46006;SDS011;31738;50.188;8.524;2022-07-24T12:20:43;6.85;;;5.07;;
46006;SDS011;31738;50.188;8.524;2022-07-24T12:23:13;6.13;;;5.07;;
46006;SDS011;31738;50.188;8.524;2022-07-24T12:25:40;5.70;;;5.10;;
46006;SDS011;31738;50.188;8.524;2022-07-24T12:28:08;5.45;;;4.95;;
46006;SDS011;31738;50.188;8.524;2022-07-24T12:30:35;5.15;;;4.65;;
46006;SDS011;31738;50.188;8.524;2022-07-24T12:33:04;5.75;;;4.65;;
46006;SDS011;31738;50.188;8.524;2022-07-24T12:35:33;6.60;;;5.50;;
46006;SDS011;31738;50.188;8.524;2022-07-24T12:38:22;6.45;;;5.30;;
46006;SDS011;31738;50.188;8.524;2022-07-24T12:40:51;5.45;;;4.95;;
46006;SDS011;31738;50.188;8.524;2022-07-24T12:43:25;8.23;;;5.63;;
46006;SDS011;31738;50.188;8.524;2022-07-24T12:46:04;6.38;;;5.20;;
46006;SDS011;31738;50.188;8.524;2022-07-24T12:48:31;6.70;;;5.70;;
46006;SDS011;31738;50.188;8.524;2022-07-24T12:50:57;7.25;;;5.25;;
46006;SDS011;31738;50.188;8.524;2022-07-24T12:53:29;6.15;;;5.63;;
46006;SDS011;31738;50.188;8.524;2022-07-24T12:56:15;6.45;;;5.70;;
46006;SDS011;31738;50.188;8.524;2022-07-24T12:58:48;6.95;;;5.22;;
46006;SDS011;31738;50.188;8.524;2022-07-24T13:01:17;6.55;;;5.50;;
46006;SDS011;31738;50.188;8.524;2022-07-24T13:03:51;6.10;;;5.50;;
46006;SDS011;31738;50.188;8.524;2022-07-24T13:06:29;6.82;;;5.93;;
46006;SDS011;31738;50.188;8.524;2022-07-24T13:08:56;8.35;;;6.45;;
46006;SDS011;31738;50.188;8.524;2022-07-24T13:11:22;6.60;;;5.90;;
46006;SDS011;31738;50.188;8.524;2022-07-24T13:13:47;6.68;;;6.00;;
46006;SDS011;31738;50.188;8.524;2022-07-24T13:16:13;6.50;;;5.85;;
46006;SDS011;31738;50.188;8.524;2022-07-24T13:18:38;8.88;;;5.90;;
46006;SDS011;31738;50.188;8.524;2022-07-24T13:21:03;6.07;;;5.47;;
46006;SDS011;31738;50.188;8.524;2022-07-24T13:23:29;8.63;;;5.80;;
46006;SDS011;31738;50.188;8.524;2022-07-24T13:25:54;6.50;;;5.35;;
46006;SDS011;31738;50.188;8.524;2022-07-24T13:28:20;5.82;;;5.22;;
46006;SDS011;31738;50.188;8.524;2022-07-24T13:30:45;5.97;;;5.18;;
46006;SDS011;31738;50.188;8.524;2022-07-24T13:33:11;5.97;;;5.22;;
46006;SDS011;31738;50.188;8.524;2022-07-24T13:35:36;7.20;;;5.78;;
46006;SDS011;31738;50.188;8.524;2022-07-24T13:38:01;5.68;;;5.03;;
46006;SDS011;31738;50.188;8.524;2022-07-24T13:40:27;7.32;;;5.47;;
46006;SDS011;31738;50.188;8.524;2022-07-24T13:42:52;7.55;;;5.55;;
46006;SDS011;31738;50.188;8.524;2022-07-24T13:45:18;6.05;;;5.47;;
46006;SDS011;31738;50.188;8.524;2022-07-24T13:47:44;5.65;;;5.05;;
46006;SDS011;31738;50.188;8.524;2022-07-24T13:50:09;6.03;;;5.22;;
46006;SDS011;31738;50.188;8.524;2022-07-24T13:52:35;8.07;;;5.95;;
46006;SDS011;31738;50.188;8.524;2022-07-24T13:55:00;6.03;;;5.20;;
46006;SDS011;31738;50.188;8.524;2022-07-24T13:57:26;7.60;;;5.38;;
46006;SDS011;31738;50.188;8.524;2022-07-24T13:59:51;6.35;;;5.75;;
46006;SDS011;31738;50.188;8.524;2022-07-24T14:02:16;6.18;;;5.43;;
46006;SDS011;31738;50.188;8.524;2022-07-24T14:04:42;7.55;;;5.18;;
46006;SDS011;31738;50.188;8.524;2022-07-24T14:07:08;6.93;;;6.03;;
46006;SDS011;31738;50.188;8.524;2022-07-24T14:09:34;6.78;;;5.72;;
46006;SDS011;31738;50.188;8.524;2022-07-24T14:11:59;6.32;;;5.45;;
46006;SDS011;31738;50.188;8.524;2022-07-24T14:14:25;6.22;;;5.32;;
46006;SDS011;31738;50.188;8.524;2022-07-24T14:16:50;7.18;;;5.47;;
46006;SDS011;31738;50.188;8.524;2022-07-24T14:19:16;5.63;;;4.97;;
46006;SDS011;31738;50.188;8.524;2022-07-24T14:21:42;6.25;;;5.55;;
46006;SDS011;31738;50.188;8.524;2022-07-24T14:24:11;7.82;;;5.57;;
46006;SDS011;31738;50.188;8.524;2022-07-24T14:26:36;7.25;;;5.60;;
46006;SDS011;31738;50.188;8.524;2022-07-24T14:29:01;7.28;;;5.57;;
46006;SDS011;31738;50.188;8.524;2022-07-24T14:31:27;6.50;;;5.32;;
46006;SDS011;31738;50.188;8.524;2022-07-24T14:33:52;7.05;;;5.40;;
46006;SDS011;31738;50.188;8.524;2022-07-24T14:36:18;7.85;;;6.03;;
46006;SDS011;31738;50.188;8.524;2022-07-24T14:38:43;5.88;;;5.32;;
46006;SDS011;31738;50.188;8.524;2022-07-24T14:41:09;7.15;;;6.00;;
46006;SDS011;31738;50.188;8.524;2022-07-24T14:43:34;7.47;;;5.60;;
46006;SDS011;31738;50.188;8.524;2022-07-24T14:46:00;6.25;;;5.65;;
46006;SDS011;31738;50.188;8.524;2022-07-24T14:48:25;6.38;;;5.35;;
46006;SDS011;31738;50.188;8.524;2022-07-24T14:50:50;5.53;;;4.93;;
46006;SDS011;31738;50.188;8.524;2022-07-24T14:53:16;7.40;;;5.30;;
46006;SDS011;31738;50.188;8.524;2022-07-24T14:55:41;6.22;;;5.20;;
46006;SDS011;31738;50.188;8.524;2022-07-24T14:58:07;6.20;;;5.57;;
46006;SDS011;31738;50.188;8.524;2022-07-24T15:00:32;7.30;;;6.03;;
46006;SDS011;31738;50.188;8.524;2022-07-24T15:02:58;6.55;;;5.07;;
46006;SDS011;31738;50.188;8.524;2022-07-24T15:05:23;8.00;;;6.20;;
46006;SDS011;31738;50.188;8.524;2022-07-24T15:07:49;6.53;;;5.30;;
46006;SDS011;31738;50.188;8.524;2022-07-24T15:10:14;6.20;;;5.53;;